05AZ weather

Yuma Regional Medical Center Heliport
Yuma, Arizona, United States

Public forecast

Using degrees Fahrenheit for public forecast. Weather courtesy of forecast.io.

Closest aviation weather report (METAR) to Yuma Regional Medical Center Heliport

Closest report is Yuma MCAS/Yuma International Airport, 2.1 nm (3.9 km) SE. Retrieved 2020/02/26 17:57 UTC (38 minutes ago):

KNYL 261757Z 02007KT 7SM CLR 18/M12 A3043 RMK AO2 SLP304 T01781117 10178 20083 50002

Closest aviation forecast (TAF) to Yuma Regional Medical Center Heliport

Forecast is more than 12 hours old.

Closest forecast is Yuma MCAS/Yuma International Airport, 2.1 nm (3.9 km) SE. Retrieved 2014/04/27 15:15 UTC (6 years ago):

TAF TAF COR KNYL 271500Z 2715/2815 VRB06KT 9999 FEW250 QNH2989INS BECMG 2716/2718 26007KT QNH2978INS BECMG 2806/2808 VRB05KT QNH2981INS AUTOMATED SENSOR METWATCH 2715 TIL 2815 TX22/2723Z TN10/2813Z COR 1545